Sunflower Gold — JD2460 — position and weather

sailwx.info

Track history (hours):
 
Tides and Currents Weather Stations Pressure Air Temp Water Temp Dewpoint Dewpoint Depression Visibility Wind Speed Wind Dir Waves Ship Positions

Sunflower Gold

Last reported at 2017-Aug-20 11:19 UTC. Time now 2017-Aug-21 14:07 UTC.
Position N 34°35' E 134°53'.

Length 166 m; draft 5.8 m.

Type: Passenger vessel. MMSI: 431000331.

Date/timePositionNaut miles runAvg speedWind from/ knotsBaromVisibWave heightAir tempDewpointWater temp
2017-Aug-20 11:19N 34°35' E 134°53'721.8
2017-Aug-20 11:00N 34°38' E 135°00'1020.2
2017-Aug-20 10:30N 34°37' E 135°13'612.5
2017-Aug-20 10:00N 34°42' E 135°17'0 0.0
2017-Aug-20 09:29N 34°42' E 135°17'0 0.0
2017-Aug-20 08:59N 34°42' E 135°17'0 0.0
2017-Aug-20 08:29N 34°42' E 135°17'0 0.0
2017-Aug-20 07:53N 34°42' E 135°17'0 0.0
2017-Aug-20 07:29N 34°42' E 135°17'0 0.0
2017-Aug-20 06:59N 34°42' E 135°17'0 0.0
2017-Aug-20 06:23N 34°42' E 135°17'0 0.0
2017-Aug-20 05:59N 34°42' E 135°17'0 0.0
2017-Aug-20 05:29N 34°42' E 135°17'0 0.0
2017-Aug-20 04:59N 34°42' E 135°17'0 0.0
2017-Aug-20 04:29N 34°42' E 135°17'0 0.0
2017-Aug-20 03:53N 34°42' E 135°17'0 0.0
2017-Aug-20 03:05N 34°42' E 135°17'0 0.1
2017-Aug-20 02:59N 34°42' E 135°17'0 0.0
2017-Aug-20 02:29N 34°42' E 135°17'0 0.0
2017-Aug-20 01:59N 34°42' E 135°17'0 0.0
2017-Aug-20 01:17N 34°42' E 135°17'0 0.0
2017-Aug-20 00:59N 34°42' E 135°17'0 0.0
2017-Aug-20 00:29N 34°42' E 135°17'0 0.0
2017-Aug-19 23:59N 34°42' E 135°17'0 0.0
2017-Aug-19 23:29N 34°42' E 135°17'0 0.0
2017-Aug-19 22:59N 34°42' E 135°17'2 5.0
2017-Aug-19 22:30N 34°40' E 135°18'816.5
2017-Aug-19 22:00N 34°36' E 135°09'816.7
2017-Aug-19 21:30N 34°37' E 134°60'917.6
2017-Aug-19 21:00N 34°33' E 134°50'2 0.1
2017-Aug-18 12:14N 34°35' E 134°52'521.8
2017-Aug-18 12:00N 34°37' E 134°57'1020.8
2017-Aug-18 11:31N 34°36' E 135°10'917.5
2017-Aug-18 11:01N 34°41' E 135°18'1 1.5
2017-Aug-18 10:28N 34°42' E 135°17'0 0.0
2017-Aug-18 09:52N 34°42' E 135°17'0 0.0
2017-Aug-18 09:28N 34°42' E 135°17'0 0.0
2017-Aug-18 08:58N 34°42' E 135°17'0 0.0
2017-Aug-18 08:28N 34°42' E 135°17'0 0.0
2017-Aug-18 07:52N 34°42' E 135°17'0 0.0
2017-Aug-18 07:28N 34°42' E 135°17'0 0.0
2017-Aug-18 06:58N 34°42' E 135°17'0 0.0
2017-Aug-18 06:28N 34°42' E 135°17'0 0.0
2017-Aug-18 05:58N 34°42' E 135°17'0 0.0
2017-Aug-18 05:28N 34°42' E 135°17'0 0.0
2017-Aug-18 04:58N 34°42' E 135°17'0 0.0
2017-Aug-18 04:28N 34°42' E 135°17'0 0.0
2017-Aug-18 03:58N 34°42' E 135°17'0 0.0
2017-Aug-18 03:22N 34°42' E 135°17'0 0.0
2017-Aug-18 02:58N 34°42' E 135°17'0 0.0
2017-Aug-18 02:28N 34°42' E 135°17'0 0.0
2017-Aug-18 01:58N 34°42' E 135°17'0 0.0
2017-Aug-18 01:22N 34°42' E 135°17'0 0.0
2017-Aug-18 00:58N 34°42' E 135°17'0 0.0
2017-Aug-18 00:28N 34°42' E 135°17'0 0.0
2017-Aug-17 23:58N 34°42' E 135°17'0 0.0
2017-Aug-17 23:28N 34°42' E 135°17'0 0.0
2017-Aug-17 22:58N 34°42' E 135°17'0 0.0
2017-Aug-17 22:28N 34°42' E 135°17'0 0.0
2017-Aug-17 21:58N 34°42' E 135°17'0 0.0
2017-Aug-17 21:30N 34°42' E 135°17'511.0
2017-Aug-17 21:00N 34°36' E 135°17'1020.3
2017-Aug-17 20:30N 34°35' E 135°05'917.3
2017-Aug-17 20:00N 34°35' E 134°54'2 0.0
2017-Aug-16 11:25N 34°35' E 134°52'819.1
2017-Aug-16 11:00N 34°37' E 135°01'1020.0
2017-Aug-16 10:30N 34°37' E 135°13'611.8
2017-Aug-16 10:00N 34°42' E 135°17'0 0.0
2017-Aug-16 09:26N 34°42' E 135°17'0 0.0
2017-Aug-16 08:56N 34°42' E 135°17'0 0.0
2017-Aug-16 08:20N 34°42' E 135°17'0 0.0
2017-Aug-16 07:56N 34°42' E 135°17'0 0.0
2017-Aug-16 07:26N 34°42' E 135°17'0 0.0
2017-Aug-16 06:50N 34°42' E 135°17'0 0.0
2017-Aug-16 06:26N 34°42' E 135°17'0 0.0
2017-Aug-16 05:56N 34°42' E 135°17'0 0.0
2017-Aug-16 05:26N 34°42' E 135°17'0 0.0
2017-Aug-16 04:38N 34°42' E 135°17'0 0.0
2017-Aug-16 04:26N 34°42' E 135°17'0 0.0
2017-Aug-16 03:56N 34°42' E 135°17'0 0.0
2017-Aug-16 03:26N 34°42' E 135°17'0 0.0
2017-Aug-16 02:56N 34°42' E 135°17'0 0.0
2017-Aug-16 02:26N 34°42' E 135°17'0 0.0
2017-Aug-16 01:56N 34°42' E 135°17'0 0.0
2017-Aug-16 01:26N 34°42' E 135°17'0 0.0
2017-Aug-16 00:56N 34°42' E 135°17'0 0.0
2017-Aug-16 00:26N 34°42' E 135°17'0 0.0
2017-Aug-15 23:56N 34°42' E 135°17'0 0.0
2017-Aug-15 23:26N 34°42' E 135°17'0 0.0
2017-Aug-15 22:50N 34°42' E 135°17'0 0.0
2017-Aug-15 22:26N 34°42' E 135°17'0 0.0
2017-Aug-15 21:56N 34°42' E 135°17'0 0.0
2017-Aug-15 21:30N 34°42' E 135°17'5 9.8
2017-Aug-15 21:00N 34°37' E 135°17'1020.3
2017-Aug-15 20:30N 34°35' E 135°05'1019.3
2017-Aug-15 20:00N 34°35' E 134°53'3 0.1
2017-Aug-14 11:33N 34°34' E 134°50'420.5
2017-Aug-14 11:22N 34°36' E 134°54'617.8
2017-Aug-14 11:00N 34°37' E 135°02'918.4
2017-Aug-14 10:30N 34°37' E 135°13'612.1
2017-Aug-14 10:00N 34°42' E 135°17'0 0.0
2017-Aug-14 09:21N 34°42' E 135°17'0 0.0
2017-Aug-14 08:51N 34°42' E 135°17'0 0.0
2017-Aug-14 08:27N 34°42' E 135°17'0 0.0
2017-Aug-14 07:57N 34°42' E 135°17'0 0.0
2017-Aug-14 07:27N 34°42' E 135°17'0 0.0
2017-Aug-14 06:51N 34°42' E 135°17'0 0.0
2017-Aug-14 06:21N 34°42' E 135°17'0 0.0
2017-Aug-14 05:57N 34°42' E 135°17'0 0.0
2017-Aug-14 05:27N 34°42' E 135°17'0 0.0
2017-Aug-14 04:57N 34°42' E 135°17'0 0.0
2017-Aug-14 04:15N 34°42' E 135°17'0 0.0
2017-Aug-14 03:57N 34°42' E 135°17'0 0.0
2017-Aug-14 03:27N 34°42' E 135°17'0 0.0
2017-Aug-14 02:57N 34°42' E 135°17'0 0.0
2017-Aug-14 02:27N 34°42' E 135°17'0 0.0
2017-Aug-14 01:51N 34°42' E 135°17'0 0.0
2017-Aug-14 01:21N 34°42' E 135°17'0 0.0
2017-Aug-14 00:57N 34°42' E 135°17'0 0.0
2017-Aug-14 00:21N 34°42' E 135°17'0 0.0
2017-Aug-13 23:51N 34°42' E 135°17'0 0.0
2017-Aug-13 23:27N 34°42' E 135°17'0 0.0
2017-Aug-13 22:57N 34°42' E 135°17'0 0.0
2017-Aug-13 22:27N 34°42' E 135°17'0 0.0
2017-Aug-13 21:57N 34°42' E 135°17'0 0.0
2017-Aug-13 21:30N 34°42' E 135°17'5 9.5
2017-Aug-13 21:00N 34°37' E 135°17'1019.4
2017-Aug-13 20:30N 34°34' E 135°06'1019.4
2017-Aug-13 20:00N 34°35' E 134°54'1 0.0
2017-Aug-12 12:05N 34°36' E 134°55'221.2
2017-Aug-12 12:00N 34°37' E 134°57'1019.6
2017-Aug-12 11:30N 34°36' E 135°08'918.0
2017-Aug-12 11:00N 34°41' E 135°18'2 2.6
2017-Aug-12 10:25N 34°42' E 135°17'0 0.0
2017-Aug-12 09:55N 34°42' E 135°17'0 0.0
2017-Aug-12 09:19N 34°42' E 135°17'0 0.0
2017-Aug-12 08:55N 34°42' E 135°17'0 0.0
2017-Aug-12 08:25N 34°42' E 135°17'0 0.0
2017-Aug-12 07:55N 34°42' E 135°17'0 0.0
2017-Aug-12 07:19N 34°42' E 135°17'0 0.0
2017-Aug-12 06:55N 34°42' E 135°17'0 0.0
2017-Aug-12 06:19N 34°42' E 135°17'0 0.0
2017-Aug-12 05:55N 34°42' E 135°17'0 0.0
2017-Aug-12 05:25N 34°42' E 135°17'0 0.0
2017-Aug-12 04:55N 34°42' E 135°17'0 0.0
2017-Aug-12 04:25N 34°42' E 135°17'0 0.0
2017-Aug-12 03:55N 34°42' E 135°17'0 0.0
2017-Aug-12 03:25N 34°42' E 135°17'0 0.0
2017-Aug-12 02:49N 34°42' E 135°17'0 0.0
2017-Aug-12 02:25N 34°42' E 135°17'0 0.0
2017-Aug-12 01:55N 34°42' E 135°17'0 0.0
2017-Aug-12 01:19N 34°42' E 135°17'0 0.0
2017-Aug-12 00:31N 34°42' E 135°17'0 0.0
2017-Aug-12 00:25N 34°42' E 135°17'0 0.0
2017-Aug-11 23:25N 34°42' E 135°17'0 0.0
2017-Aug-11 22:55N 34°42' E 135°17'3 7.2
2017-Aug-11 22:30N 34°39' E 135°18'815.1
2017-Aug-11 22:00N 34°35' E 135°11'816.8
2017-Aug-11 21:30N 34°37' E 135°01'917.5
2017-Aug-11 21:00N 34°34' E 134°51'1 0.0
2017-Aug-10 11:23N 34°35' E 134°51'  
Track history (hours):
 
Tides and Currents Weather Stations Pressure Air Temp Water Temp Dewpoint Dewpoint Depression Visibility Wind Speed Wind Dir Waves Ship Positions

Sunflower Gold

Last reported at 2017-Aug-20 11:19 UTC. Time now 2017-Aug-21 14:07 UTC.
Position N 34°35' E 134°53'.

Length 166 m; draft 5.8 m.

Type: Passenger vessel. MMSI: 431000331.

Date/timePositionNaut miles runAvg speedWind from/ knotsBaromVisibWave heightAir tempDewpointWater temp
2017-Aug-20 11:19N 34°35' E 134°53'721.8
2017-Aug-20 11:00N 34°38' E 135°00'1020.2
2017-Aug-20 10:30N 34°37' E 135°13'612.5
2017-Aug-20 10:00N 34°42' E 135°17'0 0.0
2017-Aug-20 09:29N 34°42' E 135°17'0 0.0
2017-Aug-20 08:59N 34°42' E 135°17'0 0.0
2017-Aug-20 08:29N 34°42' E 135°17'0 0.0
2017-Aug-20 07:53N 34°42' E 135°17'0 0.0
2017-Aug-20 07:29N 34°42' E 135°17'0 0.0
2017-Aug-20 06:59N 34°42' E 135°17'0 0.0
2017-Aug-20 06:23N 34°42' E 135°17'0 0.0
2017-Aug-20 05:59N 34°42' E 135°17'0 0.0
2017-Aug-20 05:29N 34°42' E 135°17'0 0.0
2017-Aug-20 04:59N 34°42' E 135°17'0 0.0
2017-Aug-20 04:29N 34°42' E 135°17'0 0.0
2017-Aug-20 03:53N 34°42' E 135°17'0 0.0
2017-Aug-20 03:05N 34°42' E 135°17'0 0.1
2017-Aug-20 02:59N 34°42' E 135°17'0 0.0
2017-Aug-20 02:29N 34°42' E 135°17'0 0.0
2017-Aug-20 01:59N 34°42' E 135°17'0 0.0
2017-Aug-20 01:17N 34°42' E 135°17'0 0.0
2017-Aug-20 00:59N 34°42' E 135°17'0 0.0
2017-Aug-20 00:29N 34°42' E 135°17'0 0.0
2017-Aug-19 23:59N 34°42' E 135°17'0 0.0
2017-Aug-19 23:29N 34°42' E 135°17'0 0.0
2017-Aug-19 22:59N 34°42' E 135°17'2 5.0
2017-Aug-19 22:30N 34°40' E 135°18'816.5
2017-Aug-19 22:00N 34°36' E 135°09'816.7
2017-Aug-19 21:30N 34°37' E 134°60'917.6
2017-Aug-19 21:00N 34°33' E 134°50'2 0.1
2017-Aug-18 12:14N 34°35' E 134°52'521.8
2017-Aug-18 12:00N 34°37' E 134°57'1020.8
2017-Aug-18 11:31N 34°36' E 135°10'917.5
2017-Aug-18 11:01N 34°41' E 135°18'1 1.5
2017-Aug-18 10:28N 34°42' E 135°17'0 0.0
2017-Aug-18 09:52N 34°42' E 135°17'0 0.0
2017-Aug-18 09:28N 34°42' E 135°17'0 0.0
2017-Aug-18 08:58N 34°42' E 135°17'0 0.0
2017-Aug-18 08:28N 34°42' E 135°17'0 0.0
2017-Aug-18 07:52N 34°42' E 135°17'0 0.0
2017-Aug-18 07:28N 34°42' E 135°17'0 0.0
2017-Aug-18 06:58N 34°42' E 135°17'0 0.0
2017-Aug-18 06:28N 34°42' E 135°17'0 0.0
2017-Aug-18 05:58N 34°42' E 135°17'0 0.0
2017-Aug-18 05:28N 34°42' E 135°17'0 0.0
2017-Aug-18 04:58N 34°42' E 135°17'0 0.0
2017-Aug-18 04:28N 34°42' E 135°17'0 0.0
2017-Aug-18 03:58N 34°42' E 135°17'0 0.0
2017-Aug-18 03:22N 34°42' E 135°17'0 0.0
2017-Aug-18 02:58N 34°42' E 135°17'0 0.0
2017-Aug-18 02:28N 34°42' E 135°17'0 0.0
2017-Aug-18 01:58N 34°42' E 135°17'0 0.0
2017-Aug-18 01:22N 34°42' E 135°17'0 0.0
2017-Aug-18 00:58N 34°42' E 135°17'0 0.0
2017-Aug-18 00:28N 34°42' E 135°17'0 0.0
2017-Aug-17 23:58N 34°42' E 135°17'0 0.0
2017-Aug-17 23:28N 34°42' E 135°17'0 0.0
2017-Aug-17 22:58N 34°42' E 135°17'0 0.0
2017-Aug-17 22:28N 34°42' E 135°17'0 0.0
2017-Aug-17 21:58N 34°42' E 135°17'0 0.0
2017-Aug-17 21:30N 34°42' E 135°17'511.0
2017-Aug-17 21:00N 34°36' E 135°17'1020.3
2017-Aug-17 20:30N 34°35' E 135°05'917.3
2017-Aug-17 20:00N 34°35' E 134°54'2 0.0
2017-Aug-16 11:25N 34°35' E 134°52'819.1
2017-Aug-16 11:00N 34°37' E 135°01'1020.0
2017-Aug-16 10:30N 34°37' E 135°13'611.8
2017-Aug-16 10:00N 34°42' E 135°17'0 0.0
2017-Aug-16 09:26N 34°42' E 135°17'0 0.0
2017-Aug-16 08:56N 34°42' E 135°17'0 0.0
2017-Aug-16 08:20N 34°42' E 135°17'0 0.0
2017-Aug-16 07:56N 34°42' E 135°17'0 0.0
2017-Aug-16 07:26N 34°42' E 135°17'0 0.0
2017-Aug-16 06:50N 34°42' E 135°17'0 0.0
2017-Aug-16 06:26N 34°42' E 135°17'0 0.0
2017-Aug-16 05:56N 34°42' E 135°17'0 0.0
2017-Aug-16 05:26N 34°42' E 135°17'0 0.0
2017-Aug-16 04:38N 34°42' E 135°17'0 0.0
2017-Aug-16 04:26N 34°42' E 135°17'0 0.0
2017-Aug-16 03:56N 34°42' E 135°17'0 0.0
2017-Aug-16 03:26N 34°42' E 135°17'0 0.0
2017-Aug-16 02:56N 34°42' E 135°17'0 0.0
2017-Aug-16 02:26N 34°42' E 135°17'0 0.0
2017-Aug-16 01:56N 34°42' E 135°17'0 0.0
2017-Aug-16 01:26N 34°42' E 135°17'0 0.0
2017-Aug-16 00:56N 34°42' E 135°17'0 0.0
2017-Aug-16 00:26N 34°42' E 135°17'0 0.0
2017-Aug-15 23:56N 34°42' E 135°17'0 0.0
2017-Aug-15 23:26N 34°42' E 135°17'0 0.0
2017-Aug-15 22:50N 34°42' E 135°17'0 0.0
2017-Aug-15 22:26N 34°42' E 135°17'0 0.0
2017-Aug-15 21:56N 34°42' E 135°17'0 0.0
2017-Aug-15 21:30N 34°42' E 135°17'5 9.8
2017-Aug-15 21:00N 34°37' E 135°17'1020.3
2017-Aug-15 20:30N 34°35' E 135°05'1019.3
2017-Aug-15 20:00N 34°35' E 134°53'3 0.1
2017-Aug-14 11:33N 34°34' E 134°50'420.5
2017-Aug-14 11:22N 34°36' E 134°54'617.8
2017-Aug-14 11:00N 34°37' E 135°02'918.4
2017-Aug-14 10:30N 34°37' E 135°13'612.1
2017-Aug-14 10:00N 34°42' E 135°17'0 0.0
2017-Aug-14 09:21N 34°42' E 135°17'0 0.0
2017-Aug-14 08:51N 34°42' E 135°17'0 0.0
2017-Aug-14 08:27N 34°42' E 135°17'0 0.0
2017-Aug-14 07:57N 34°42' E 135°17'0 0.0
2017-Aug-14 07:27N 34°42' E 135°17'0 0.0
2017-Aug-14 06:51N 34°42' E 135°17'0 0.0
2017-Aug-14 06:21N 34°42' E 135°17'0 0.0
2017-Aug-14 05:57N 34°42' E 135°17'0 0.0
2017-Aug-14 05:27N 34°42' E 135°17'0 0.0
2017-Aug-14 04:57N 34°42' E 135°17'0 0.0
2017-Aug-14 04:15N 34°42' E 135°17'0 0.0
2017-Aug-14 03:57N 34°42' E 135°17'0 0.0
2017-Aug-14 03:27N 34°42' E 135°17'0 0.0
2017-Aug-14 02:57N 34°42' E 135°17'0 0.0
2017-Aug-14 02:27N 34°42' E 135°17'0 0.0
2017-Aug-14 01:51N 34°42' E 135°17'0 0.0
2017-Aug-14 01:21N 34°42' E 135°17'0 0.0
2017-Aug-14 00:57N 34°42' E 135°17'0 0.0
2017-Aug-14 00:21N 34°42' E 135°17'0 0.0
2017-Aug-13 23:51N 34°42' E 135°17'0 0.0
2017-Aug-13 23:27N 34°42' E 135°17'0 0.0
2017-Aug-13 22:57N 34°42' E 135°17'0 0.0
2017-Aug-13 22:27N 34°42' E 135°17'0 0.0
2017-Aug-13 21:57N 34°42' E 135°17'0 0.0
2017-Aug-13 21:30N 34°42' E 135°17'5 9.5
2017-Aug-13 21:00N 34°37' E 135°17'1019.4
2017-Aug-13 20:30N 34°34' E 135°06'1019.4
2017-Aug-13 20:00N 34°35' E 134°54'1 0.0
2017-Aug-12 12:05N 34°36' E 134°55'221.2
2017-Aug-12 12:00N 34°37' E 134°57'1019.6
2017-Aug-12 11:30N 34°36' E 135°08'918.0
2017-Aug-12 11:00N 34°41' E 135°18'2 2.6
2017-Aug-12 10:25N 34°42' E 135°17'0 0.0
2017-Aug-12 09:55N 34°42' E 135°17'0 0.0
2017-Aug-12 09:19N 34°42' E 135°17'0 0.0
2017-Aug-12 08:55N 34°42' E 135°17'0 0.0
2017-Aug-12 08:25N 34°42' E 135°17'0 0.0
2017-Aug-12 07:55N 34°42' E 135°17'0 0.0
2017-Aug-12 07:19N 34°42' E 135°17'0 0.0
2017-Aug-12 06:55N 34°42' E 135°17'0 0.0
2017-Aug-12 06:19N 34°42' E 135°17'0 0.0
2017-Aug-12 05:55N 34°42' E 135°17'0 0.0
2017-Aug-12 05:25N 34°42' E 135°17'0 0.0
2017-Aug-12 04:55N 34°42' E 135°17'0 0.0
2017-Aug-12 04:25N 34°42' E 135°17'0 0.0
2017-Aug-12 03:55N 34°42' E 135°17'0 0.0
2017-Aug-12 03:25N 34°42' E 135°17'0 0.0
2017-Aug-12 02:49N 34°42' E 135°17'0 0.0
2017-Aug-12 02:25N 34°42' E 135°17'0 0.0
2017-Aug-12 01:55N 34°42' E 135°17'0 0.0
2017-Aug-12 01:19N 34°42' E 135°17'0 0.0
2017-Aug-12 00:31N 34°42' E 135°17'0 0.0
2017-Aug-12 00:25N 34°42' E 135°17'0 0.0
2017-Aug-11 23:25N 34°42' E 135°17'0 0.0
2017-Aug-11 22:55N 34°42' E 135°17'3 7.2
2017-Aug-11 22:30N 34°39' E 135°18'815.1
2017-Aug-11 22:00N 34°35' E 135°11'816.8
2017-Aug-11 21:30N 34°37' E 135°01'917.5
2017-Aug-11 21:00N 34°34' E 134°51'1 0.0
2017-Aug-10 11:23N 34°35' E 134°51'  

Dump ship's entire track history